createdAt,value
2023-03-23T15:58:14.264Z,4.63
2023-03-23T16:00:47.159Z,5.65
2023-03-23T16:03:27.540Z,5.00
2023-03-23T16:06:03.324Z,3.97
2023-03-23T16:08:33.331Z,4.97
2023-03-23T16:11:00.168Z,5.53
2023-03-23T16:13:30.254Z,4.53
2023-03-23T16:15:59.713Z,4.95
2023-03-23T16:18:31.629Z,5.20
2023-03-23T16:21:00.967Z,5.45
2023-03-23T16:23:30.061Z,4.68
2023-03-23T16:25:56.699Z,5.47
2023-03-23T16:28:23.498Z,5.80
2023-03-23T16:30:50.303Z,4.95
2023-03-23T16:33:20.351Z,5.65
2023-03-23T16:35:47.233Z,5.20
2023-03-23T16:38:16.469Z,5.63
2023-03-23T16:40:47.501Z,4.38
2023-03-23T16:43:14.576Z,5.80
2023-03-23T16:45:49.766Z,4.63
2023-03-23T16:56:28.831Z,4.30
2023-03-23T17:12:40.328Z,7.10
2023-03-23T17:15:09.306Z,4.97
2023-03-23T17:17:36.637Z,4.22
2023-03-23T17:20:06.403Z,5.88
2023-03-23T17:22:33.322Z,5.90
2023-03-23T17:25:00.202Z,5.47
2023-03-23T17:41:04.106Z,5.97
2023-03-23T17:43:31.519Z,5.78
2023-03-23T17:45:58.215Z,4.97
2023-03-23T17:48:26.896Z,5.28
2023-03-23T18:02:00.414Z,5.53
2023-03-23T18:12:55.892Z,5.75
2023-03-23T18:26:37.570Z,8.77
2023-03-23T18:29:04.866Z,6.03
2023-03-23T18:31:42.434Z,7.30
2023-03-23T18:34:09.673Z,6.65
2023-03-23T18:36:38.923Z,5.32
2023-03-23T18:39:06.212Z,6.63
2023-03-23T18:41:32.843Z,6.85
2023-03-23T18:44:11.710Z,6.00
2023-03-23T18:46:46.137Z,7.70
2023-03-23T18:49:12.889Z,6.22
2023-03-23T18:51:42.250Z,5.90
2023-03-23T18:54:09.133Z,6.32
2023-03-23T18:56:37.138Z,7.03
2023-03-23T18:59:03.802Z,8.55
2023-03-23T19:01:30.500Z,9.20
2023-03-23T19:03:57.273Z,8.18
2023-03-23T19:06:30.163Z,9.48
2023-03-23T19:08:57.825Z,10.65
2023-03-23T19:11:31.948Z,9.60
2023-03-23T19:19:25.555Z,6.22
2023-03-23T19:48:39.617Z,8.27
2023-03-23T19:51:11.934Z,7.63
2023-03-23T19:53:47.860Z,6.05
2023-03-23T20:09:51.401Z,5.03
2023-03-23T20:25:50.354Z,6.05
2023-03-23T20:28:17.545Z,5.07
2023-03-23T20:30:44.470Z,5.35
2023-03-23T20:33:11.244Z,5.60
2023-03-23T20:35:38.413Z,5.63
2023-03-23T20:38:05.206Z,5.07
2023-03-23T20:40:32.239Z,5.60
2023-03-23T20:43:01.272Z,5.88
2023-03-23T20:45:28.125Z,5.18
2023-03-23T20:50:35.753Z,4.68
2023-03-23T20:53:03.137Z,5.03
2023-03-23T20:55:30.016Z,5.32
2023-03-23T20:57:56.668Z,6.95
2023-03-23T21:00:23.474Z,5.78
2023-03-23T21:02:54.053Z,6.20
2023-03-23T21:05:21.392Z,6.43
2023-03-23T21:07:49.691Z,6.45
2023-03-23T21:10:17.208Z,6.53
2023-03-23T21:12:47.201Z,5.80
2023-03-23T21:15:14.064Z,5.75
2023-03-23T21:17:41.514Z,6.18
2023-03-23T21:20:11.103Z,5.70
2023-03-23T21:22:37.881Z,5.90
2023-03-23T21:25:05.029Z,5.28
2023-03-23T21:27:35.518Z,5.90
2023-03-23T21:30:03.639Z,5.88
2023-03-23T21:32:32.416Z,19.80
2023-03-23T21:35:02.594Z,21.73
2023-03-23T21:37:30.835Z,11.30
2023-03-23T21:39:59.317Z,7.63
2023-03-23T21:42:30.220Z,5.25
2023-03-23T21:45:03.942Z,5.47
2023-03-23T21:47:33.698Z,5.82
2023-03-23T21:50:00.357Z,5.32
2023-03-23T21:52:27.079Z,5.05
2023-03-23T21:54:53.987Z,6.22
2023-03-23T21:57:20.737Z,5.32
2023-03-23T21:59:47.485Z,4.70
2023-03-23T22:02:16.645Z,5.32
2023-03-23T22:04:43.870Z,5.18
2023-03-23T22:07:12.525Z,5.53
2023-03-23T22:09:44.997Z,6.20
2023-03-23T22:12:13.059Z,6.63
2023-03-23T22:14:40.883Z,5.35
2023-03-23T22:17:08.962Z,5.57
2023-03-23T22:19:36.597Z,6.35
2023-03-23T22:22:06.376Z,5.80
2023-03-23T22:24:36.263Z,5.03
2023-03-23T22:27:03.147Z,6.35
2023-03-23T22:29:29.902Z,5.53
2023-03-23T22:31:56.606Z,5.65
2023-03-23T22:34:23.802Z,7.32
2023-03-23T22:36:51.455Z,6.65
2023-03-23T22:39:18.484Z,7.40
2023-03-23T22:41:45.931Z,7.53
2023-03-23T22:44:18.789Z,7.25
2023-03-23T22:46:46.205Z,8.07
2023-03-23T22:49:13.805Z,8.02
2023-03-23T22:51:43.595Z,8.50
2023-03-23T22:54:11.507Z,8.15
2023-03-23T22:56:38.727Z,9.30
2023-03-23T22:59:07.944Z,9.15
2023-03-23T23:01:35.980Z,9.27
2023-03-23T23:04:04.164Z,9.65
2023-03-23T23:06:30.991Z,11.10
2023-03-23T23:08:57.796Z,11.05
2023-03-23T23:11:25.856Z,11.57
2023-03-23T23:13:53.143Z,11.93
2023-03-23T23:16:22.189Z,12.50
2023-03-23T23:18:50.238Z,13.18
2023-03-23T23:21:22.855Z,13.27
2023-03-23T23:23:51.744Z,12.45
2023-03-23T23:26:19.723Z,13.80
2023-03-23T23:28:48.543Z,13.68
2023-03-23T23:31:27.155Z,12.57
2023-03-23T23:33:59.526Z,13.27
2023-03-23T23:36:29.819Z,14.25
2023-03-23T23:39:00.454Z,14.70
2023-03-23T23:41:29.207Z,14.98
2023-03-23T23:43:56.270Z,15.15
2023-03-23T23:46:23.093Z,13.70
2023-03-23T23:48:49.828Z,14.75
2023-03-23T23:51:17.499Z,15.27
2023-03-23T23:53:53.089Z,14.65
2023-03-23T23:56:22.130Z,14.25
2023-03-23T23:58:49.240Z,15.65
